createdAt,value
2023-04-08T00:00:19.452Z,101287.95
2023-04-08T00:01:24.940Z,101292.03
2023-04-08T00:02:30.698Z,101293.37
2023-04-08T00:03:36.796Z,101291.11
2023-04-08T00:04:42.554Z,101292.8
2023-04-08T00:05:48.119Z,101295.47
2023-04-08T00:06:53.489Z,101293.42
2023-04-08T00:07:58.885Z,101296.97
2023-04-08T00:09:04.269Z,101294.41
2023-04-08T00:10:09.624Z,101296.11
2023-04-08T00:11:15.006Z,101294.7
2023-04-08T00:12:20.416Z,101298.78
2023-04-08T00:13:25.815Z,101298.22
2023-04-08T00:14:31.227Z,101301.34
2023-04-08T00:15:36.624Z,101304.27
2023-04-08T00:16:42.060Z,101304.02
2023-04-08T00:17:47.593Z,101308.45
2023-04-08T00:18:53.497Z,101314.84
2023-04-08T00:19:58.884Z,101306.62
2023-04-08T00:21:04.251Z,101308.44
2023-04-08T00:22:09.759Z,101306.97
2023-04-08T00:23:15.101Z,101321.54
2023-04-08T00:24:20.559Z,101318.03
2023-04-08T00:25:27.167Z,101305.06
2023-04-08T00:26:32.565Z,101316.7
2023-04-08T00:27:37.934Z,101318.52
2023-04-08T00:28:43.368Z,101319.85
2023-04-08T00:29:48.751Z,101318.52
2023-04-08T00:30:54.192Z,101319.44
2023-04-08T00:31:59.697Z,101320
2023-04-08T00:33:05.171Z,101321.88
2023-04-08T00:34:10.616Z,101328.86
2023-04-08T00:35:16.344Z,101330.14
2023-04-08T00:36:21.788Z,101330.9
2023-04-08T00:37:27.169Z,101327.74
2023-04-08T00:38:32.672Z,101321.82
2023-04-08T00:39:38.093Z,101321.76
2023-04-08T00:40:43.470Z,101319.91
2023-04-08T00:41:48.836Z,101328.45
2023-04-08T00:42:54.201Z,101326.34
2023-04-08T00:43:59.598Z,101329.85
2023-04-08T00:45:05.003Z,101329.72
2023-04-08T00:46:10.405Z,101329.72
2023-04-08T00:47:15.868Z,101332.81
2023-04-08T00:48:21.247Z,101334.91
2023-04-08T00:49:26.639Z,101338.92
2023-04-08T00:50:32.041Z,101338.45
2023-04-08T00:51:37.453Z,101337.69
2023-04-08T00:52:42.848Z,101340.36
2023-04-08T00:53:48.245Z,101343.1
2023-04-08T00:54:53.652Z,101335.7
2023-04-08T00:55:58.994Z,101340.36
2023-04-08T00:57:04.381Z,101338.03
2023-04-08T00:58:09.776Z,101338.67
2023-04-08T00:59:15.173Z,101332.33
2023-04-08T01:00:20.541Z,101336.47
2023-04-08T01:01:26.098Z,101332.45
2023-04-08T01:02:32.115Z,101346.13
2023-04-08T01:03:38.112Z,101341.28
2023-04-08T01:04:43.650Z,101342.53
2023-04-08T01:05:49.020Z,101338.09
2023-04-08T01:06:54.407Z,101351.48
2023-04-08T01:07:59.766Z,101350.2
2023-04-08T01:09:05.109Z,101350.5
2023-04-08T01:10:10.481Z,101346.48
2023-04-08T01:11:15.884Z,101349.31
2023-04-08T01:12:21.232Z,101344.44
2023-04-08T01:13:26.621Z,101346.56
2023-04-08T01:14:32.182Z,101352.75
2023-04-08T01:15:37.584Z,101357.88
2023-04-08T01:16:43.109Z,101357.53
2023-04-08T01:17:48.581Z,101361.91
2023-04-08T01:18:54.047Z,101360.58
2023-04-08T01:19:59.462Z,101357.09
2023-04-08T01:21:04.850Z,101366.91
2023-04-08T01:22:10.269Z,101360.99
2023-04-08T01:23:15.637Z,101361.11
2023-04-08T01:24:20.986Z,101362.33
2023-04-08T01:25:28.737Z,101360.22
2023-04-08T01:26:34.221Z,101360.58
2023-04-08T01:27:39.598Z,101374.09
2023-04-08T01:28:45.021Z,101360.36
2023-04-08T01:29:50.390Z,101368.75
2023-04-08T01:30:55.808Z,101360.14
2023-04-08T01:32:01.241Z,101364.08
2023-04-08T01:33:06.726Z,101366.7
2023-04-08T01:34:12.123Z,101366.13
2023-04-08T01:35:17.539Z,101368.75
2023-04-08T01:36:23.008Z,101363.67
2023-04-08T01:37:28.453Z,101369.5
2023-04-08T01:38:33.846Z,101371.19
2023-04-08T01:39:39.238Z,101368.87
2023-04-08T01:40:44.652Z,101372.34
2023-04-08T01:41:50.003Z,101372.11
2023-04-08T01:42:55.385Z,101374.95
2023-04-08T01:44:00.775Z,101372.53
2023-04-08T01:45:06.152Z,101370.56
2023-04-08T01:46:11.606Z,101377.13
2023-04-08T01:47:17.116Z,101370.85
2023-04-08T01:48:22.493Z,101370.78
2023-04-08T01:49:27.861Z,101371.19
2023-04-08T01:50:33.240Z,101375.3
2023-04-08T01:51:39.674Z,101379.08
2023-04-08T01:52:45.102Z,101376.34
2023-04-08T01:53:50.460Z,101379.95
2023-04-08T01:54:55.852Z,101380.14
2023-04-08T01:56:01.211Z,101381.05
2023-04-08T01:57:06.558Z,101382.33
2023-04-08T01:58:11.963Z,101387.62
2023-04-08T01:59:17.307Z,101391.69
2023-04-08T02:00:22.654Z,101388.16
2023-04-08T02:01:28.088Z,101388.03
2023-04-08T02:02:34.071Z,101389.31
2023-04-08T02:03:40.108Z,101391.42
2023-04-08T02:04:46.026Z,101390.41
2023-04-08T02:05:51.580Z,101385.69
2023-04-08T02:06:56.965Z,101390.63
2023-04-08T02:08:02.344Z,101398.59
2023-04-08T02:09:07.729Z,101400.41
2023-04-08T02:10:13.088Z,101397.61
2023-04-08T02:11:18.502Z,101400.77
2023-04-08T02:12:26.897Z,101399.08
2023-04-08T02:13:32.306Z,101402.46
2023-04-08T02:14:37.678Z,101405.14
2023-04-08T02:15:43.029Z,101411.98
2023-04-08T02:16:48.641Z,101405.7
2023-04-08T02:17:54.352Z,101408.67
2023-04-08T02:18:59.898Z,101409.72
2023-04-08T02:20:05.299Z,101409.56
2023-04-08T02:21:10.729Z,101411.12
2023-04-08T02:22:16.101Z,101408.5
2023-04-08T02:23:21.523Z,101406.18
2023-04-08T02:24:26.902Z,101408.8
2023-04-08T02:25:32.290Z,101413.32
2023-04-08T02:26:37.682Z,101423.46
2023-04-08T02:27:43.068Z,101420.27
2023-04-08T02:28:48.675Z,101420.72
2023-04-08T02:29:54.674Z,101419.66
2023-04-08T02:30:59.999Z,101421.7
2023-04-08T02:32:05.368Z,101424.77
2023-04-08T02:33:10.877Z,101422.52
2023-04-08T02:34:16.329Z,101429.65
2023-04-08T02:35:21.737Z,101424.14
2023-04-08T02:36:27.181Z,101430.36
2023-04-08T02:37:32.620Z,101432.31
2023-04-08T02:38:38.032Z,101427.47
2023-04-08T02:39:43.429Z,101441.78
2023-04-08T02:40:48.803Z,101436.55
2023-04-08T02:41:54.161Z,101434.65
2023-04-08T02:42:59.531Z,101436.05
2023-04-08T02:44:04.935Z,101435.03
2023-04-08T02:45:10.327Z,101441.91
2023-04-08T02:46:15.936Z,101437.23
2023-04-08T02:47:21.539Z,101435.89
2023-04-08T02:48:27.053Z,101445.92
2023-04-08T02:49:32.427Z,101440.27
2023-04-08T02:50:37.831Z,101442.95
2023-04-08T02:51:43.202Z,101442.02
2023-04-08T02:52:48.570Z,101445.92
2023-04-08T02:53:53.936Z,101447.26
2023-04-08T02:54:59.354Z,101453.5
2023-04-08T02:56:04.737Z,101449.48
2023-04-08T02:57:10.132Z,101454.21
2023-04-08T02:58:15.502Z,101457.66
2023-04-08T02:59:20.874Z,101462.95
2023-04-08T03:00:26.264Z,101461.67
2023-04-08T03:01:32.154Z,101464.92
2023-04-08T03:02:38.040Z,101465.42
2023-04-08T03:03:44.236Z,101470.01
2023-04-08T03:04:49.899Z,101467.86
2023-04-08T03:05:55.266Z,101467.72
2023-04-08T03:07:00.667Z,101464.06
2023-04-08T03:08:06.071Z,101471.16
2023-04-08T03:09:11.469Z,101471.61
2023-04-08T03:10:16.835Z,101474.5
2023-04-08T03:11:22.191Z,101479.64
2023-04-08T03:12:27.573Z,101473.99
2023-04-08T03:13:32.952Z,101479.82
2023-04-08T03:14:38.381Z,101481.31
2023-04-08T03:15:43.750Z,101477.92
2023-04-08T03:16:49.233Z,101479.31
2023-04-08T03:17:54.848Z,101479.26
2023-04-08T03:19:00.350Z,101475.45
2023-04-08T03:20:05.759Z,101483.98
2023-04-08T03:21:11.170Z,101487.67
2023-04-08T03:22:16.549Z,101484.55
2023-04-08T03:23:21.982Z,101481.88
2023-04-08T03:24:27.395Z,101480.77
2023-04-08T03:25:32.838Z,101482.58
2023-04-08T03:26:38.210Z,101487.22
2023-04-08T03:27:43.745Z,101490.47
2023-04-08T03:28:49.867Z,101489.07
2023-04-08T03:29:56.010Z,101489.03
2023-04-08T03:31:01.478Z,101485.89
2023-04-08T03:32:06.973Z,101488.33
2023-04-08T03:33:12.826Z,101485.02
2023-04-08T03:34:18.211Z,101491.15
2023-04-08T03:35:23.779Z,101488.2
2023-04-08T03:36:29.259Z,101491.41
2023-04-08T03:37:35.065Z,101489.03
2023-04-08T03:38:40.451Z,101487.34
2023-04-08T03:39:45.823Z,101492.48
2023-04-08T03:40:51.250Z,101496.65
2023-04-08T03:41:56.625Z,101494.09
2023-04-08T03:43:02.008Z,101499.08
2023-04-08T03:44:07.420Z,101490.23
2023-04-08T03:45:12.826Z,101498.55
2023-04-08T03:46:18.218Z,101504.26
2023-04-08T03:47:23.888Z,101498.41
2023-04-08T03:48:29.339Z,101511.01
2023-04-08T03:49:34.716Z,101507.35
2023-04-08T03:50:40.132Z,101508.75
2023-04-08T03:51:45.531Z,101506.75
2023-04-08T03:52:50.928Z,101507.2
2023-04-08T03:53:56.314Z,101502.69
2023-04-08T03:55:01.672Z,101516.06
2023-04-08T03:56:07.129Z,101507.11
2023-04-08T03:57:12.533Z,101517.96
2023-04-08T03:58:17.893Z,101516.92
2023-04-08T03:59:23.266Z,101515.95
2023-04-08T04:00:28.643Z,101514.97
2023-04-08T04:01:34.108Z,101516.72
2023-04-08T04:02:39.826Z,101518.47
2023-04-08T04:03:46.051Z,101516.48
2023-04-08T04:04:51.860Z,101517.4
2023-04-08T04:05:57.428Z,101519.34
2023-04-08T04:07:02.850Z,101520.7
2023-04-08T04:08:08.306Z,101516.88
2023-04-08T04:09:13.673Z,101519.58
2023-04-08T04:10:19.031Z,101523.92
2023-04-08T04:11:24.485Z,101521.34
2023-04-08T04:12:29.841Z,101525.37
2023-04-08T04:13:35.336Z,101529.73
2023-04-08T04:14:40.769Z,101523.55
2023-04-08T04:15:46.234Z,101527.03
2023-04-08T04:16:51.717Z,101525.28
2023-04-08T04:17:57.159Z,101529.86
2023-04-08T04:19:02.737Z,101530.48
2023-04-08T04:20:08.255Z,101528.39
2023-04-08T04:21:13.665Z,101527.95
2023-04-08T04:22:19.044Z,101525.14
2023-04-08T04:23:24.431Z,101522.72
2023-04-08T04:24:29.813Z,101535.84
2023-04-08T04:25:35.217Z,101534.09
2023-04-08T04:26:40.736Z,101530.08
2023-04-08T04:27:46.148Z,101539.59
2023-04-08T04:28:51.950Z,101540.72
2023-04-08T04:29:57.489Z,101542
2023-04-08T04:31:02.913Z,101545.38
2023-04-08T04:32:08.406Z,101541.59
2023-04-08T04:33:13.778Z,101545.13
2023-04-08T04:34:19.174Z,101546.47
2023-04-08T04:35:24.634Z,101542.8
2023-04-08T04:36:30.076Z,101544.34
2023-04-08T04:37:35.478Z,101548.36
2023-04-08T04:38:40.858Z,101551.2
2023-04-08T04:39:46.238Z,101546.09
2023-04-08T04:40:51.595Z,101546.03
2023-04-08T04:41:56.982Z,101548.59
2023-04-08T04:43:02.440Z,101543.7
2023-04-08T04:44:07.808Z,101551.34
2023-04-08T04:45:13.195Z,101552.73
2023-04-08T04:46:18.754Z,101562.32
2023-04-08T04:47:24.300Z,101544.47
2023-04-08T04:48:29.757Z,101558.65
2023-04-08T04:49:35.125Z,101560.09
2023-04-08T04:50:40.495Z,101551.59
2023-04-08T04:51:45.909Z,101559.31
2023-04-08T04:52:51.394Z,101563.18
2023-04-08T04:53:56.757Z,101566.38
2023-04-08T04:55:02.101Z,101567.13
2023-04-08T04:56:07.504Z,101569.02
2023-04-08T04:57:12.925Z,101570.64
2023-04-08T04:58:18.273Z,101565.5
2023-04-08T04:59:23.751Z,101565.36
2023-04-08T05:00:29.101Z,101566.35
2023-04-08T05:01:34.566Z,101566.06
2023-04-08T05:02:41.160Z,101576.14
2023-04-08T05:03:46.874Z,101578.34
2023-04-08T05:04:52.420Z,101571.06
2023-04-08T05:05:58.845Z,101563.39
2023-04-08T05:07:04.289Z,101571.56
2023-04-08T05:08:09.688Z,101575.86
2023-04-08T05:09:15.050Z,101574.26
2023-04-08T05:10:20.433Z,101573.55
2023-04-08T05:11:25.803Z,101575.94
2023-04-08T05:12:31.174Z,101576.58
2023-04-08T05:13:36.570Z,101574.81
2023-04-08T05:14:41.913Z,101588.85
2023-04-08T05:15:47.796Z,101577.13
2023-04-08T05:16:53.414Z,101581
2023-04-08T05:17:58.922Z,101586.98
2023-04-08T05:19:04.424Z,101588.48
2023-04-08T05:20:09.791Z,101585.51
2023-04-08T05:21:15.208Z,101585.72
2023-04-08T05:22:20.575Z,101584.44
2023-04-08T05:23:25.962Z,101591.5
2023-04-08T05:24:31.328Z,101591.14
2023-04-08T05:25:36.727Z,101594.34
2023-04-08T05:26:42.141Z,101588.2
2023-04-08T05:27:47.532Z,101592.28
2023-04-08T05:28:53.731Z,101596.78
2023-04-08T05:29:59.098Z,101598.56
2023-04-08T05:31:04.510Z,101597.29
2023-04-08T05:32:09.960Z,101595.59
2023-04-08T05:33:15.312Z,101602.77
2023-04-08T05:34:20.792Z,101602.3
2023-04-08T05:35:26.236Z,101603.7
2023-04-08T05:36:31.648Z,101606.44
2023-04-08T05:37:37.018Z,101599.47
2023-04-08T05:38:42.386Z,101605.6
2023-04-08T05:39:47.784Z,101602.92
2023-04-08T05:40:53.148Z,101602.92
2023-04-08T05:41:58.508Z,101604.62
2023-04-08T05:43:03.906Z,101606.31
2023-04-08T05:44:09.302Z,101603.48
2023-04-08T05:45:14.674Z,101605.27
2023-04-08T05:46:20.116Z,101603.84
2023-04-08T05:47:25.623Z,101609.64
2023-04-08T05:48:31.068Z,101610.77
2023-04-08T05:49:36.441Z,101610
2023-04-08T05:50:41.858Z,101606.87
2023-04-08T05:51:47.696Z,101614.44
2023-04-08T05:52:53.050Z,101606.04
2023-04-08T05:53:58.535Z,101612.8
2023-04-08T05:55:03.888Z,101615.48
2023-04-08T05:56:09.328Z,101613.44
2023-04-08T05:57:14.734Z,101614
2023-04-08T05:58:20.080Z,101618.85
2023-04-08T05:59:25.534Z,101614.92
2023-04-08T06:00:30.925Z,101623.02
2023-04-08T06:01:36.481Z,101618.95
2023-04-08T06:02:42.288Z,101622.73
2023-04-08T06:03:48.401Z,101619.7
2023-04-08T06:04:55.067Z,101628.59
2023-04-08T06:06:00.551Z,101630.83
2023-04-08T06:07:05.901Z,101631.7
2023-04-08T06:08:11.269Z,101627.83
2023-04-08T06:09:16.659Z,101636.05
2023-04-08T06:10:22.036Z,101631.13
2023-04-08T06:11:27.403Z,101640.52
2023-04-08T06:12:32.798Z,101640.06
2023-04-08T06:13:38.132Z,101639.3
2023-04-08T06:14:43.518Z,101637.19
2023-04-08T06:15:48.886Z,101635.69
2023-04-08T06:16:54.383Z,101639.8
2023-04-08T06:17:59.883Z,101638.46
2023-04-08T06:19:05.347Z,101643.37
2023-04-08T06:20:13.001Z,101653.53
2023-04-08T06:21:18.396Z,101654.81
2023-04-08T06:22:23.797Z,101659.72
2023-04-08T06:23:29.169Z,101656.98
2023-04-08T06:24:34.619Z,101649.87
2023-04-08T06:25:40.049Z,101661.98
2023-04-08T06:26:45.443Z,101665.65
2023-04-08T06:27:50.801Z,101662.2
2023-04-08T06:28:56.143Z,101666.27
2023-04-08T06:30:01.692Z,101664.58
2023-04-08T06:31:07.167Z,101665.14
2023-04-08T06:32:12.587Z,101673.39
2023-04-08T06:33:18.041Z,101672.91
2023-04-08T06:34:23.400Z,101675.89
2023-04-08T06:35:29.789Z,101679.28
2023-04-08T06:36:36.701Z,101676.55
2023-04-08T06:37:42.053Z,101676.57
2023-04-08T06:38:47.417Z,101679.97
2023-04-08T06:39:53.135Z,101685.26
2023-04-08T06:40:58.483Z,101683.17
2023-04-08T06:42:03.901Z,101690.38
2023-04-08T06:43:09.277Z,101686.85
2023-04-08T06:44:14.638Z,101681.3
2023-04-08T06:45:20.009Z,101687.63
2023-04-08T06:46:25.536Z,101688.64
2023-04-08T06:47:31.034Z,101688.24
2023-04-08T06:48:36.649Z,101690.02
2023-04-08T06:49:42.064Z,101689.08
2023-04-08T06:50:47.442Z,101698.19
2023-04-08T06:51:52.792Z,101689.42
2023-04-08T06:52:58.216Z,101697.13
2023-04-08T06:54:03.596Z,101697.39
2023-04-08T06:55:09.006Z,101694.48
2023-04-08T06:56:14.410Z,101700.94
2023-04-08T06:57:19.826Z,101701.16
2023-04-08T06:58:26.226Z,101705.36
2023-04-08T06:59:31.589Z,101694.98
2023-04-08T07:00:36.966Z,101699.1
2023-04-08T07:01:42.527Z,101707.16
2023-04-08T07:02:48.309Z,101706.7
2023-04-08T07:03:54.287Z,101708.32
2023-04-08T07:04:59.909Z,101707.13
2023-04-08T07:06:05.292Z,101717.13
2023-04-08T07:07:10.654Z,101717.24
2023-04-08T07:08:16.067Z,101716.05
2023-04-08T07:09:21.438Z,101713.5
2023-04-08T07:10:26.819Z,101716.39
2023-04-08T07:11:32.184Z,101719.64
2023-04-08T07:12:37.539Z,101715.27
2023-04-08T07:13:43.003Z,101721.28
2023-04-08T07:14:48.420Z,101727.22
2023-04-08T07:15:53.804Z,101719.34
2023-04-08T07:16:59.287Z,101722.52
2023-04-08T07:18:05.028Z,101731.42
2023-04-08T07:19:10.464Z,101719.5
2023-04-08T07:20:15.827Z,101728.8
2023-04-08T07:21:21.223Z,101728.78
2023-04-08T07:22:26.613Z,101720.23
2023-04-08T07:23:31.980Z,101717.05
2023-04-08T07:24:37.360Z,101724.5
2023-04-08T07:25:42.734Z,101728.95
2023-04-08T07:26:48.117Z,101726.13
2023-04-08T07:27:53.496Z,101728.5
2023-04-08T07:28:58.933Z,101730.17
2023-04-08T07:30:04.575Z,101732.23
2023-04-08T07:31:10.165Z,101733.21
2023-04-08T07:32:15.649Z,101730.59
2023-04-08T07:33:21.039Z,101740.09
2023-04-08T07:34:26.388Z,101733.54
2023-04-08T07:35:31.857Z,101728.17
2023-04-08T07:36:37.326Z,101735.86
2023-04-08T07:37:42.725Z,101736.37
2023-04-08T07:38:48.183Z,101737.7
2023-04-08T07:39:54.025Z,101738.48
2023-04-08T07:40:59.360Z,101735.71
2023-04-08T07:42:04.722Z,101741.52
2023-04-08T07:43:10.082Z,101745.54
2023-04-08T07:44:15.469Z,101739.94
2023-04-08T07:45:20.824Z,101738.81
2023-04-08T07:46:26.435Z,101740.56
2023-04-08T07:47:31.928Z,101742.35
2023-04-08T07:48:38.348Z,101746.08
2023-04-08T07:49:43.717Z,101741.81
2023-04-08T07:51:11.255Z,101751.28
2023-04-08T07:52:16.988Z,101745.15
2023-04-08T07:53:25.283Z,101740.83
2023-04-08T07:54:30.693Z,101753.19
2023-04-08T07:55:36.075Z,101756.85
2023-04-08T07:56:41.488Z,101746.91
2023-04-08T07:57:47.084Z,101750.87
2023-04-08T07:58:55.117Z,101750.45
2023-04-08T08:00:00.899Z,101746.08
2023-04-08T08:01:06.286Z,101737.27
2023-04-08T08:02:11.834Z,101755.87
2023-04-08T08:03:17.511Z,101751.64
2023-04-08T08:04:23.462Z,101757.98
2023-04-08T08:05:29.528Z,101755.36
2023-04-08T08:06:34.909Z,101752.32
2023-04-08T08:07:40.292Z,101747.73
2023-04-08T08:08:45.882Z,101755.3
2023-04-08T08:09:51.305Z,101752.17
2023-04-08T08:10:56.658Z,101759.23
2023-04-08T08:12:02.042Z,101755.36
2023-04-08T08:13:07.401Z,101756.28
2023-04-08T08:14:12.794Z,101756.97
2023-04-08T08:15:18.195Z,101758.34
2023-04-08T08:16:23.710Z,101757.16
2023-04-08T08:17:29.696Z,101765.66
2023-04-08T08:18:36.109Z,101762.52
2023-04-08T08:19:41.505Z,101766.89
2023-04-08T08:20:46.901Z,101768.59
2023-04-08T08:21:52.287Z,101768.53
2023-04-08T08:22:59.307Z,101769.04
2023-04-08T08:24:05.684Z,101768.23
2023-04-08T08:25:11.095Z,101764.87
2023-04-08T08:26:16.496Z,101769.66
2023-04-08T08:27:21.918Z,101765.73
2023-04-08T08:28:27.340Z,101774.67
2023-04-08T08:29:32.719Z,101772.85
2023-04-08T08:30:38.189Z,101769.55
2023-04-08T08:31:43.702Z,101772.28
2023-04-08T08:32:49.346Z,101778.42
2023-04-08T08:33:54.769Z,101781.05
2023-04-08T08:35:00.129Z,101776.45
2023-04-08T08:36:05.807Z,101781.1
2023-04-08T08:37:11.382Z,101772.44
2023-04-08T08:38:16.786Z,101785.58
2023-04-08T08:39:22.206Z,101780.45
2023-04-08T08:40:27.588Z,101775.36
2023-04-08T08:41:32.985Z,101780.24
2023-04-08T08:42:38.405Z,101778.34
2023-04-08T08:43:43.773Z,101778.28
2023-04-08T08:44:49.192Z,101779.62
2023-04-08T08:45:54.634Z,101776.37
2023-04-08T08:47:00.264Z,101780.75
2023-04-08T08:48:05.893Z,101784.66
2023-04-08T08:49:11.352Z,101785.01
2023-04-08T08:50:16.747Z,101782.33
2023-04-08T08:51:22.130Z,101783.31
2023-04-08T08:52:27.500Z,101780.54
2023-04-08T08:53:36.364Z,101781.88
2023-04-08T08:54:41.946Z,101786.41
2023-04-08T08:56:18.160Z,101788.59
2023-04-08T08:57:24.089Z,101784.5
2023-04-08T08:58:29.564Z,101792.91
2023-04-08T08:59:34.978Z,101786.62
2023-04-08T09:00:40.360Z,101784.86
2023-04-08T09:01:45.931Z,101791.56
2023-04-08T09:02:51.857Z,101785.58
2023-04-08T09:03:57.882Z,101783.81
2023-04-08T09:05:04.053Z,101788.2
2023-04-08T09:06:12.634Z,101797.16
2023-04-08T09:07:18.208Z,101794.39
2023-04-08T09:08:23.563Z,101785.94
2023-04-08T09:09:28.920Z,101792.22
2023-04-08T09:10:34.375Z,101794.33
2023-04-08T09:11:39.822Z,101795.62
2023-04-08T09:12:45.341Z,101793.29
2023-04-08T09:13:51.184Z,101793.2
2023-04-08T09:14:56.851Z,101790.88
2023-04-08T09:16:02.308Z,101793.5
2023-04-08T09:17:07.767Z,101790.34
2023-04-08T09:18:13.142Z,101801.55
2023-04-08T09:19:20.100Z,101798.3
2023-04-08T09:20:25.478Z,101800.7
2023-04-08T09:21:30.891Z,101800.38
2023-04-08T09:22:36.247Z,101800.97
2023-04-08T09:23:41.651Z,101797.78
2023-04-08T09:24:47.030Z,101809.64
2023-04-08T09:25:52.529Z,101798.98
2023-04-08T09:26:58.162Z,101805.63
2023-04-08T09:28:03.520Z,101800.97
2023-04-08T09:29:27.367Z,101801.93
2023-04-08T09:30:37.474Z,101794.9
2023-04-08T09:31:43.140Z,101804.91
2023-04-08T09:32:48.823Z,101798.12
2023-04-08T09:33:54.508Z,101803.09
2023-04-08T09:34:59.861Z,101799.13
2023-04-08T09:36:05.364Z,101803.72
2023-04-08T09:37:10.826Z,101794.45
2023-04-08T09:38:16.197Z,101804.31
2023-04-08T09:39:21.576Z,101799.36
2023-04-08T09:40:26.935Z,101806.25
2023-04-08T09:41:34.640Z,101800.02
2023-04-08T09:42:40.031Z,101799.91
2023-04-08T09:43:45.380Z,101803.12
2023-04-08T09:44:50.728Z,101806.52
2023-04-08T09:45:58.553Z,101804.1
2023-04-08T09:47:03.948Z,101808.06
2023-04-08T09:48:09.331Z,101797.22
2023-04-08T09:49:14.705Z,101808.22
2023-04-08T09:50:20.175Z,101803.66
2023-04-08T09:51:25.545Z,101809.64
2023-04-08T09:52:30.919Z,101814.08
2023-04-08T09:53:36.282Z,101811.84
2023-04-08T09:54:41.682Z,101810.92
2023-04-08T09:55:47.038Z,101804.78
2023-04-08T09:56:52.420Z,101805.68
2023-04-08T09:57:57.803Z,101796.94
2023-04-08T09:59:04.333Z,101807.31
2023-04-08T10:00:11.003Z,101810
2023-04-08T10:01:16.449Z,101804.63
2023-04-08T10:02:22.256Z,101802.66
2023-04-08T10:03:28.524Z,101803.08
2023-04-08T10:04:34.473Z,101808.03
2023-04-08T10:05:40.004Z,101813.03
2023-04-08T10:06:45.378Z,101804.42
2023-04-08T10:07:50.774Z,101812.41
2023-04-08T10:08:56.158Z,101809.73
2023-04-08T10:10:01.631Z,101804.78
2023-04-08T10:11:07.039Z,101802.04
2023-04-08T10:12:12.428Z,101809.67
2023-04-08T10:13:17.804Z,101802.91
2023-04-08T10:14:23.200Z,101807.76
2023-04-08T10:15:28.568Z,101809.91
2023-04-08T10:16:34.029Z,101801.38
2023-04-08T10:17:39.513Z,101800.52
2023-04-08T10:18:45.033Z,101806.83
2023-04-08T10:19:50.436Z,101808.14
2023-04-08T10:20:55.810Z,101812.68
2023-04-08T10:22:01.171Z,101808.56
2023-04-08T10:23:06.537Z,101808.09
2023-04-08T10:24:11.998Z,101808.5
2023-04-08T10:25:17.734Z,101810.56
2023-04-08T10:26:23.382Z,101807.4
2023-04-08T10:27:28.743Z,101807.88
2023-04-08T10:28:34.132Z,101809.78
2023-04-08T10:29:39.550Z,101818.31
2023-04-08T10:30:45.061Z,101814.28
2023-04-08T10:31:50.475Z,101818.81
2023-04-08T10:32:56.066Z,101817.77
2023-04-08T10:34:01.545Z,101808.45
2023-04-08T10:35:06.945Z,101821.8
2023-04-08T10:36:12.481Z,101814.52
2023-04-08T10:37:17.891Z,101817.27
2023-04-08T10:38:23.282Z,101814.52
2023-04-08T10:39:28.721Z,101810.56
2023-04-08T10:40:34.106Z,101812.31
2023-04-08T10:41:39.458Z,101812.25
2023-04-08T10:42:44.832Z,101806.47
2023-04-08T10:43:50.848Z,101811.33
2023-04-08T10:44:56.667Z,101808.59
2023-04-08T10:46:02.117Z,101810.7
2023-04-08T10:47:07.635Z,101809.52
2023-04-08T10:48:12.978Z,101817.05
2023-04-08T10:49:18.391Z,101815.23
2023-04-08T10:50:23.774Z,101819.73
2023-04-08T10:51:29.186Z,101815.66
2023-04-08T10:52:37.120Z,101810.16
2023-04-08T10:53:42.476Z,101811.92
2023-04-08T10:54:47.847Z,101814.61
2023-04-08T10:55:53.232Z,101809.5
2023-04-08T10:56:58.632Z,101808.16
2023-04-08T10:58:04.000Z,101812.19
2023-04-08T10:59:09.357Z,101821.4
2023-04-08T11:00:14.824Z,101812.01
2023-04-08T11:01:20.291Z,101814.06
2023-04-08T11:02:25.996Z,101811.28
2023-04-08T11:03:31.967Z,101813.55
2023-04-08T11:04:37.832Z,101816.02
2023-04-08T11:05:43.532Z,101814.62
2023-04-08T11:06:48.976Z,101814.62
2023-04-08T11:07:54.370Z,101815.33
2023-04-08T11:08:59.727Z,101817.54
2023-04-08T11:10:05.159Z,101820.07
2023-04-08T11:11:11.082Z,101816.55
2023-04-08T11:12:16.570Z,101813.36
2023-04-08T11:13:21.955Z,101810.47
2023-04-08T11:14:27.298Z,101815.55
2023-04-08T11:15:32.712Z,101810.48
2023-04-08T11:16:38.314Z,101812.66
2023-04-08T11:17:43.913Z,101812.45
2023-04-08T11:18:49.723Z,101814.84
2023-04-08T11:19:55.080Z,101812.79
2023-04-08T11:21:01.804Z,101811.9
2023-04-08T11:22:07.233Z,101825.22
2023-04-08T11:23:12.588Z,101815.41
2023-04-08T11:24:20.499Z,101823.05
2023-04-08T11:25:25.835Z,101811.66
2023-04-08T11:26:31.221Z,101815.61
2023-04-08T11:27:36.620Z,101819.06
2023-04-08T11:28:41.991Z,101813.47
2023-04-08T11:29:47.343Z,101813.17
2023-04-08T11:30:52.751Z,101823.02
2023-04-08T11:31:58.194Z,101817.7
2023-04-08T11:33:03.719Z,101819.83
2023-04-08T11:34:09.217Z,101820.58
2023-04-08T11:35:14.604Z,101818.13
2023-04-08T11:36:20.007Z,101821.59
2023-04-08T11:37:25.542Z,101818.61
2023-04-08T11:38:33.594Z,101820.43
2023-04-08T11:39:38.934Z,101816.2
2023-04-08T11:40:44.292Z,101824.09
2023-04-08T11:41:49.674Z,101819.84
2023-04-08T11:42:55.108Z,101821.74
2023-04-08T11:44:00.511Z,101828.66
2023-04-08T11:45:05.903Z,101831.97
2023-04-08T11:46:11.294Z,101821.45
2023-04-08T11:47:16.948Z,101825.68
2023-04-08T11:48:22.294Z,101826.21
2023-04-08T11:49:27.761Z,101825.95
2023-04-08T11:50:33.183Z,101830.95
2023-04-08T11:51:38.534Z,101821.69
2023-04-08T11:52:43.923Z,101827.46
2023-04-08T11:53:49.586Z,101827.2
2023-04-08T11:54:57.331Z,101829.37
2023-04-08T11:56:02.698Z,101835.23
2023-04-08T11:57:08.049Z,101824.84
2023-04-08T11:58:13.658Z,101825.14
2023-04-08T11:59:19.033Z,101829.22
2023-04-08T12:00:24.450Z,101833.45
2023-04-08T12:01:29.934Z,101823.97
2023-04-08T12:02:35.597Z,101829.33
2023-04-08T12:03:41.616Z,101817.63
2023-04-08T12:04:47.431Z,101825.31
2023-04-08T12:05:52.921Z,101828.5
2023-04-08T12:07:00.891Z,101826.38
2023-04-08T12:08:06.273Z,101820.78
2023-04-08T12:09:11.716Z,101826.05
2023-04-08T12:10:17.067Z,101823.63
2023-04-08T12:11:22.441Z,101824.55
2023-04-08T12:12:27.868Z,101825.18
2023-04-08T12:13:33.255Z,101827.86
2023-04-08T12:14:38.655Z,101831.1
2023-04-08T12:15:44.155Z,101829.82
2023-04-08T12:16:49.568Z,101829.82
2023-04-08T12:17:55.150Z,101828.62
2023-04-08T12:19:00.600Z,101829.16
2023-04-08T12:20:05.980Z,101831.06
2023-04-08T12:21:11.387Z,101825.65
2023-04-08T12:22:16.794Z,101831.52
2023-04-08T12:23:22.165Z,101831.21
2023-04-08T12:24:27.571Z,101823.65
2023-04-08T12:25:32.972Z,101829
2023-04-08T12:26:38.342Z,101824.72
2023-04-08T12:27:43.719Z,101835.8
2023-04-08T12:28:49.089Z,101829.98
2023-04-08T12:29:54.493Z,101828.44
2023-04-08T12:30:59.850Z,101827.04